sensor_id;sensor_type;location;lat;lon;timestamp;P1;durP1;ratioP1;P2;durP2;ratioP2
16119;SDS011;12670;53.502;10.252;2022-08-21T00:00:10;4.40;;;2.10;;
16119;SDS011;12670;53.502;10.252;2022-08-21T00:03:16;7.97;;;2.00;;
16119;SDS011;12670;53.502;10.252;2022-08-21T00:06:19;7.57;;;2.20;;
16119;SDS011;12670;53.502;10.252;2022-08-21T00:09:22;5.43;;;2.27;;
16119;SDS011;12670;53.502;10.252;2022-08-21T00:12:26;7.60;;;1.90;;
16119;SDS011;12670;53.502;10.252;2022-08-21T00:15:30;4.73;;;2.00;;
16119;SDS011;12670;53.502;10.252;2022-08-21T00:18:34;6.30;;;2.47;;
16119;SDS011;12670;53.502;10.252;2022-08-21T00:21:36;6.57;;;2.57;;
16119;SDS011;12670;53.502;10.252;2022-08-21T00:24:39;11.37;;;2.37;;
16119;SDS011;12670;53.502;10.252;2022-08-21T00:27:43;12.13;;;2.17;;
16119;SDS011;12670;53.502;10.252;2022-08-21T00:30:47;6.43;;;2.23;;
16119;SDS011;12670;53.502;10.252;2022-08-21T00:33:50;5.83;;;2.03;;
16119;SDS011;12670;53.502;10.252;2022-08-21T00:37:01;6.33;;;2.00;;
16119;SDS011;12670;53.502;10.252;2022-08-21T00:40:04;10.30;;;2.03;;
16119;SDS011;12670;53.502;10.252;2022-08-21T00:43:12;9.13;;;2.20;;
16119;SDS011;12670;53.502;10.252;2022-08-21T00:46:16;10.53;;;2.20;;
16119;SDS011;12670;53.502;10.252;2022-08-21T00:49:19;7.00;;;2.00;;
16119;SDS011;12670;53.502;10.252;2022-08-21T00:52:22;6.47;;;1.90;;
16119;SDS011;12670;53.502;10.252;2022-08-21T00:55:28;3.90;;;1.83;;
16119;SDS011;12670;53.502;10.252;2022-08-21T00:58:34;4.60;;;2.17;;
16119;SDS011;12670;53.502;10.252;2022-08-21T01:01:41;5.90;;;2.27;;
16119;SDS011;12670;53.502;10.252;2022-08-21T01:04:44;5.43;;;2.10;;
16119;SDS011;12670;53.502;10.252;2022-08-21T01:07:46;9.87;;;2.20;;
16119;SDS011;12670;53.502;10.252;2022-08-21T01:10:49;7.07;;;2.13;;
16119;SDS011;12670;53.502;10.252;2022-08-21T01:13:56;5.90;;;2.60;;
16119;SDS011;12670;53.502;10.252;2022-08-21T01:16:59;4.97;;;2.10;;
16119;SDS011;12670;53.502;10.252;2022-08-21T01:20:06;4.50;;;2.20;;
16119;SDS011;12670;53.502;10.252;2022-08-21T01:23:11;4.53;;;2.17;;
16119;SDS011;12670;53.502;10.252;2022-08-21T01:26:16;9.57;;;2.83;;
16119;SDS011;12670;53.502;10.252;2022-08-21T01:29:23;5.20;;;2.40;;
16119;SDS011;12670;53.502;10.252;2022-08-21T01:32:32;4.17;;;2.47;;
16119;SDS011;12670;53.502;10.252;2022-08-21T01:35:35;6.77;;;2.53;;
16119;SDS011;12670;53.502;10.252;2022-08-21T01:38:40;6.43;;;2.23;;
16119;SDS011;12670;53.502;10.252;2022-08-21T01:41:42;8.17;;;3.10;;
16119;SDS011;12670;53.502;10.252;2022-08-21T01:44:45;5.53;;;2.57;;
16119;SDS011;12670;53.502;10.252;2022-08-21T01:47:49;5.33;;;2.57;;
16119;SDS011;12670;53.502;10.252;2022-08-21T01:50:51;5.40;;;2.47;;
16119;SDS011;12670;53.502;10.252;2022-08-21T01:53:58;6.07;;;2.57;;
16119;SDS011;12670;53.502;10.252;2022-08-21T01:57:01;5.37;;;2.63;;
16119;SDS011;12670;53.502;10.252;2022-08-21T02:00:07;5.90;;;2.30;;
16119;SDS011;12670;53.502;10.252;2022-08-21T02:03:12;7.70;;;2.50;;
16119;SDS011;12670;53.502;10.252;2022-08-21T02:06:31;6.77;;;2.20;;
16119;SDS011;12670;53.502;10.252;2022-08-21T02:09:35;11.17;;;2.80;;
16119;SDS011;12670;53.502;10.252;2022-08-21T02:12:40;6.37;;;2.57;;
16119;SDS011;12670;53.502;10.252;2022-08-21T02:15:43;7.50;;;2.43;;
16119;SDS011;12670;53.502;10.252;2022-08-21T02:18:46;7.67;;;2.60;;
16119;SDS011;12670;53.502;10.252;2022-08-21T02:21:49;5.97;;;2.60;;
16119;SDS011;12670;53.502;10.252;2022-08-21T02:24:53;6.53;;;2.63;;
16119;SDS011;12670;53.502;10.252;2022-08-21T02:27:55;7.67;;;2.90;;
16119;SDS011;12670;53.502;10.252;2022-08-21T02:30:58;8.23;;;2.70;;
16119;SDS011;12670;53.502;10.252;2022-08-21T02:34:02;5.83;;;2.50;;
16119;SDS011;12670;53.502;10.252;2022-08-21T02:37:05;8.47;;;2.70;;
16119;SDS011;12670;53.502;10.252;2022-08-21T02:40:09;7.93;;;2.60;;
16119;SDS011;12670;53.502;10.252;2022-08-21T02:43:13;6.10;;;2.57;;
16119;SDS011;12670;53.502;10.252;2022-08-21T02:46:18;7.53;;;2.80;;
16119;SDS011;12670;53.502;10.252;2022-08-21T02:49:22;4.83;;;2.53;;
16119;SDS011;12670;53.502;10.252;2022-08-21T02:52:25;7.70;;;2.70;;
16119;SDS011;12670;53.502;10.252;2022-08-21T02:55:30;8.60;;;2.63;;
16119;SDS011;12670;53.502;10.252;2022-08-21T02:58:35;5.67;;;2.60;;
16119;SDS011;12670;53.502;10.252;2022-08-21T03:01:39;5.33;;;2.67;;
16119;SDS011;12670;53.502;10.252;2022-08-21T03:04:42;7.27;;;2.77;;
16119;SDS011;12670;53.502;10.252;2022-08-21T03:07:47;5.17;;;2.77;;
16119;SDS011;12670;53.502;10.252;2022-08-21T03:10:52;8.30;;;2.70;;
16119;SDS011;12670;53.502;10.252;2022-08-21T03:13:55;6.67;;;2.70;;
16119;SDS011;12670;53.502;10.252;2022-08-21T03:16:58;8.27;;;2.70;;
16119;SDS011;12670;53.502;10.252;2022-08-21T03:20:00;3.83;;;2.23;;
16119;SDS011;12670;53.502;10.252;2022-08-21T03:23:04;5.97;;;2.50;;
16119;SDS011;12670;53.502;10.252;2022-08-21T03:26:15;5.87;;;2.37;;
16119;SDS011;12670;53.502;10.252;2022-08-21T03:29:19;7.73;;;2.70;;
16119;SDS011;12670;53.502;10.252;2022-08-21T03:32:22;4.47;;;2.20;;
16119;SDS011;12670;53.502;10.252;2022-08-21T03:35:25;6.10;;;2.40;;
16119;SDS011;12670;53.502;10.252;2022-08-21T03:38:29;5.67;;;2.40;;
16119;SDS011;12670;53.502;10.252;2022-08-21T03:41:33;5.33;;;2.33;;
16119;SDS011;12670;53.502;10.252;2022-08-21T03:44:36;10.13;;;2.43;;
16119;SDS011;12670;53.502;10.252;2022-08-21T03:47:49;5.17;;;2.63;;
16119;SDS011;12670;53.502;10.252;2022-08-21T03:50:53;5.00;;;2.60;;
16119;SDS011;12670;53.502;10.252;2022-08-21T03:53:56;6.17;;;2.60;;
16119;SDS011;12670;53.502;10.252;2022-08-21T03:57:00;4.03;;;2.30;;
16119;SDS011;12670;53.502;10.252;2022-08-21T04:00:03;5.13;;;2.53;;
16119;SDS011;12670;53.502;10.252;2022-08-21T04:03:09;5.97;;;2.33;;
16119;SDS011;12670;53.502;10.252;2022-08-21T04:06:11;8.23;;;2.40;;
16119;SDS011;12670;53.502;10.252;2022-08-21T04:09:14;4.87;;;2.77;;
16119;SDS011;12670;53.502;10.252;2022-08-21T04:12:18;4.30;;;2.10;;
16119;SDS011;12670;53.502;10.252;2022-08-21T04:15:21;4.97;;;2.20;;
16119;SDS011;12670;53.502;10.252;2022-08-21T04:18:25;4.20;;;2.23;;
16119;SDS011;12670;53.502;10.252;2022-08-21T04:21:28;4.00;;;2.10;;
16119;SDS011;12670;53.502;10.252;2022-08-21T04:24:31;5.50;;;2.20;;
16119;SDS011;12670;53.502;10.252;2022-08-21T04:27:35;3.90;;;2.17;;
16119;SDS011;12670;53.502;10.252;2022-08-21T04:30:38;6.13;;;2.30;;
16119;SDS011;12670;53.502;10.252;2022-08-21T04:33:40;2.90;;;1.97;;
16119;SDS011;12670;53.502;10.252;2022-08-21T04:36:43;5.67;;;2.60;;
16119;SDS011;12670;53.502;10.252;2022-08-21T04:39:46;3.83;;;2.30;;
16119;SDS011;12670;53.502;10.252;2022-08-21T04:42:56;5.97;;;2.40;;
16119;SDS011;12670;53.502;10.252;2022-08-21T04:46:02;5.57;;;2.20;;
16119;SDS011;12670;53.502;10.252;2022-08-21T04:49:05;3.60;;;2.27;;
16119;SDS011;12670;53.502;10.252;2022-08-21T04:52:08;4.80;;;2.17;;
16119;SDS011;12670;53.502;10.252;2022-08-21T04:55:11;4.07;;;2.20;;
16119;SDS011;12670;53.502;10.252;2022-08-21T04:58:16;3.53;;;2.17;;
16119;SDS011;12670;53.502;10.252;2022-08-21T05:01:21;6.43;;;2.50;;
16119;SDS011;12670;53.502;10.252;2022-08-21T05:04:26;6.33;;;2.40;;
16119;SDS011;12670;53.502;10.252;2022-08-21T05:07:33;4.53;;;1.90;;
16119;SDS011;12670;53.502;10.252;2022-08-21T05:10:43;4.17;;;2.07;;
16119;SDS011;12670;53.502;10.252;2022-08-21T05:13:47;5.30;;;2.17;;
16119;SDS011;12670;53.502;10.252;2022-08-21T05:16:57;2.50;;;1.80;;
16119;SDS011;12670;53.502;10.252;2022-08-21T05:20:00;4.37;;;2.10;;
16119;SDS011;12670;53.502;10.252;2022-08-21T05:23:06;4.00;;;2.00;;
16119;SDS011;12670;53.502;10.252;2022-08-21T05:26:10;5.07;;;2.10;;
16119;SDS011;12670;53.502;10.252;2022-08-21T05:29:20;5.90;;;2.33;;
16119;SDS011;12670;53.502;10.252;2022-08-21T05:32:23;3.77;;;2.10;;
16119;SDS011;12670;53.502;10.252;2022-08-21T05:35:29;3.37;;;2.00;;
16119;SDS011;12670;53.502;10.252;2022-08-21T05:38:31;3.97;;;2.20;;
16119;SDS011;12670;53.502;10.252;2022-08-21T05:41:34;3.60;;;2.20;;
16119;SDS011;12670;53.502;10.252;2022-08-21T05:44:38;4.57;;;2.07;;
16119;SDS011;12670;53.502;10.252;2022-08-21T05:47:43;4.30;;;2.10;;
16119;SDS011;12670;53.502;10.252;2022-08-21T05:50:46;6.77;;;2.33;;
16119;SDS011;12670;53.502;10.252;2022-08-21T05:53:50;5.30;;;1.87;;
16119;SDS011;12670;53.502;10.252;2022-08-21T05:56:53;5.83;;;1.90;;
16119;SDS011;12670;53.502;10.252;2022-08-21T05:59:57;7.13;;;2.10;;
16119;SDS011;12670;53.502;10.252;2022-08-21T06:02:59;4.23;;;2.20;;
16119;SDS011;12670;53.502;10.252;2022-08-21T06:06:02;8.60;;;2.37;;
16119;SDS011;12670;53.502;10.252;2022-08-21T06:09:05;6.47;;;2.10;;
16119;SDS011;12670;53.502;10.252;2022-08-21T06:12:10;4.80;;;2.60;;
16119;SDS011;12670;53.502;10.252;2022-08-21T06:15:15;6.50;;;2.50;;
16119;SDS011;12670;53.502;10.252;2022-08-21T06:18:18;4.93;;;2.10;;
16119;SDS011;12670;53.502;10.252;2022-08-21T06:21:20;5.03;;;2.20;;
16119;SDS011;12670;53.502;10.252;2022-08-21T06:24:23;8.47;;;2.57;;
16119;SDS011;12670;53.502;10.252;2022-08-21T06:27:26;7.57;;;1.97;;
16119;SDS011;12670;53.502;10.252;2022-08-21T06:30:30;7.43;;;2.50;;
16119;SDS011;12670;53.502;10.252;2022-08-21T06:33:33;5.80;;;2.83;;
16119;SDS011;12670;53.502;10.252;2022-08-21T06:36:36;6.83;;;2.37;;
16119;SDS011;12670;53.502;10.252;2022-08-21T06:39:38;4.67;;;2.07;;
16119;SDS011;12670;53.502;10.252;2022-08-21T06:42:45;6.37;;;2.40;;
16119;SDS011;12670;53.502;10.252;2022-08-21T06:45:49;6.13;;;3.27;;
16119;SDS011;12670;53.502;10.252;2022-08-21T06:48:52;7.30;;;2.70;;
16119;SDS011;12670;53.502;10.252;2022-08-21T06:51:55;8.37;;;3.60;;
16119;SDS011;12670;53.502;10.252;2022-08-21T06:54:57;7.30;;;2.40;;
16119;SDS011;12670;53.502;10.252;2022-08-21T06:58:00;6.20;;;2.47;;
16119;SDS011;12670;53.502;10.252;2022-08-21T07:01:05;4.60;;;2.20;;
16119;SDS011;12670;53.502;10.252;2022-08-21T07:04:08;7.30;;;2.23;;
16119;SDS011;12670;53.502;10.252;2022-08-21T07:07:11;4.60;;;2.10;;
16119;SDS011;12670;53.502;10.252;2022-08-21T07:10:14;5.13;;;2.00;;
16119;SDS011;12670;53.502;10.252;2022-08-21T07:13:23;9.23;;;2.27;;
16119;SDS011;12670;53.502;10.252;2022-08-21T07:16:27;6.93;;;1.80;;
16119;SDS011;12670;53.502;10.252;2022-08-21T07:19:29;7.47;;;2.00;;
16119;SDS011;12670;53.502;10.252;2022-08-21T07:22:32;5.57;;;2.33;;
16119;SDS011;12670;53.502;10.252;2022-08-21T07:25:37;5.40;;;1.90;;
16119;SDS011;12670;53.502;10.252;2022-08-21T07:28:40;4.97;;;1.97;;
16119;SDS011;12670;53.502;10.252;2022-08-21T07:31:44;5.53;;;2.03;;
16119;SDS011;12670;53.502;10.252;2022-08-21T07:34:47;4.37;;;2.00;;
16119;SDS011;12670;53.502;10.252;2022-08-21T07:37:49;8.33;;;2.07;;
16119;SDS011;12670;53.502;10.252;2022-08-21T07:40:52;4.03;;;1.67;;
16119;SDS011;12670;53.502;10.252;2022-08-21T07:43:57;6.93;;;2.30;;
16119;SDS011;12670;53.502;10.252;2022-08-21T07:47:02;6.70;;;2.33;;
16119;SDS011;12670;53.502;10.252;2022-08-21T07:50:06;4.13;;;1.80;;
16119;SDS011;12670;53.502;10.252;2022-08-21T07:53:09;5.43;;;1.90;;
16119;SDS011;12670;53.502;10.252;2022-08-21T07:56:12;3.50;;;1.77;;
16119;SDS011;12670;53.502;10.252;2022-08-21T07:59:14;6.27;;;2.20;;
16119;SDS011;12670;53.502;10.252;2022-08-21T08:02:22;4.53;;;2.10;;
16119;SDS011;12670;53.502;10.252;2022-08-21T08:05:27;4.83;;;2.07;;
16119;SDS011;12670;53.502;10.252;2022-08-21T08:08:32;7.10;;;2.00;;
16119;SDS011;12670;53.502;10.252;2022-08-21T08:11:35;4.10;;;1.80;;
16119;SDS011;12670;53.502;10.252;2022-08-21T08:14:41;4.17;;;1.90;;
16119;SDS011;12670;53.502;10.252;2022-08-21T08:17:45;4.33;;;1.80;;
16119;SDS011;12670;53.502;10.252;2022-08-21T08:20:48;3.20;;;1.70;;
16119;SDS011;12670;53.502;10.252;2022-08-21T08:23:50;4.30;;;1.63;;
16119;SDS011;12670;53.502;10.252;2022-08-21T08:26:53;7.33;;;1.90;;
16119;SDS011;12670;53.502;10.252;2022-08-21T08:29:58;8.50;;;2.63;;
16119;SDS011;12670;53.502;10.252;2022-08-21T08:33:02;5.95;;;1.83;;
16119;SDS011;12670;53.502;10.252;2022-08-21T08:36:05;7.38;;;2.17;;
16119;SDS011;12670;53.502;10.252;2022-08-21T08:39:14;7.97;;;1.73;;
16119;SDS011;12670;53.502;10.252;2022-08-21T08:42:29;7.38;;;2.00;;
16119;SDS011;12670;53.502;10.252;2022-08-21T08:45:36;7.55;;;2.00;;
16119;SDS011;12670;53.502;10.252;2022-08-21T08:48:45;3.85;;;1.63;;
16119;SDS011;12670;53.502;10.252;2022-08-21T08:51:53;6.95;;;1.95;;
16119;SDS011;12670;53.502;10.252;2022-08-21T08:55:02;4.63;;;1.95;;
16119;SDS011;12670;53.502;10.252;2022-08-21T08:58:07;3.35;;;1.85;;
16119;SDS011;12670;53.502;10.252;2022-08-21T09:01:16;7.88;;;1.90;;
16119;SDS011;12670;53.502;10.252;2022-08-21T09:04:23;5.22;;;1.63;;
16119;SDS011;12670;53.502;10.252;2022-08-21T09:07:32;7.50;;;2.22;;
16119;SDS011;12670;53.502;10.252;2022-08-21T09:10:43;6.63;;;1.60;;
16119;SDS011;12670;53.502;10.252;2022-08-21T09:13:56;8.18;;;2.15;;
16119;SDS011;12670;53.502;10.252;2022-08-21T09:17:11;6.97;;;1.90;;
16119;SDS011;12670;53.502;10.252;2022-08-21T09:20:23;5.22;;;1.75;;
16119;SDS011;12670;53.502;10.252;2022-08-21T09:23:36;12.75;;;2.00;;
16119;SDS011;12670;53.502;10.252;2022-08-21T09:26:50;9.63;;;1.98;;
16119;SDS011;12670;53.502;10.252;2022-08-21T09:30:03;3.75;;;1.60;;
16119;SDS011;12670;53.502;10.252;2022-08-21T09:33:09;5.40;;;1.70;;
16119;SDS011;12670;53.502;10.252;2022-08-21T09:36:23;4.07;;;1.65;;
16119;SDS011;12670;53.502;10.252;2022-08-21T09:39:29;8.75;;;1.80;;
16119;SDS011;12670;53.502;10.252;2022-08-21T09:42:41;5.22;;;1.83;;
16119;SDS011;12670;53.502;10.252;2022-08-21T09:45:44;4.68;;;2.00;;
16119;SDS011;12670;53.502;10.252;2022-08-21T09:48:49;6.82;;;1.80;;
16119;SDS011;12670;53.502;10.252;2022-08-21T09:51:55;6.07;;;1.75;;
16119;SDS011;12670;53.502;10.252;2022-08-21T09:54:59;7.60;;;2.20;;
16119;SDS011;12670;53.502;10.252;2022-08-21T09:58:29;5.90;;;2.00;;
16119;SDS011;12670;53.502;10.252;2022-08-21T10:01:33;8.65;;;2.40;;
16119;SDS011;12670;53.502;10.252;2022-08-21T10:04:49;6.68;;;2.25;;
16119;SDS011;12670;53.502;10.252;2022-08-21T10:07:54;6.03;;;1.98;;
16119;SDS011;12670;53.502;10.252;2022-08-21T10:11:04;4.68;;;2.00;;
16119;SDS011;12670;53.502;10.252;2022-08-21T10:14:12;5.85;;;1.95;;
16119;SDS011;12670;53.502;10.252;2022-08-21T10:17:21;14.13;;;2.25;;
16119;SDS011;12670;53.502;10.252;2022-08-21T10:20:29;5.35;;;1.80;;
16119;SDS011;12670;53.502;10.252;2022-08-21T10:23:43;8.30;;;2.33;;
16119;SDS011;12670;53.502;10.252;2022-08-21T10:26:53;8.18;;;2.40;;
16119;SDS011;12670;53.502;10.252;2022-08-21T10:30:05;4.97;;;2.10;;
16119;SDS011;12670;53.502;10.252;2022-08-21T10:33:23;6.47;;;2.17;;
16119;SDS011;12670;53.502;10.252;2022-08-21T10:36:33;13.20;;;2.38;;
16119;SDS011;12670;53.502;10.252;2022-08-21T10:39:44;7.63;;;2.42;;
16119;SDS011;12670;53.502;10.252;2022-08-21T10:43:02;7.88;;;2.22;;
16119;SDS011;12670;53.502;10.252;2022-08-21T10:46:16;12.10;;;2.95;;
16119;SDS011;12670;53.502;10.252;2022-08-21T10:49:38;5.28;;;1.70;;
16119;SDS011;12670;53.502;10.252;2022-08-21T10:52:47;6.03;;;2.40;;
16119;SDS011;12670;53.502;10.252;2022-08-21T10:56:01;9.13;;;2.00;;
16119;SDS011;12670;53.502;10.252;2022-08-21T10:59:17;3.38;;;1.70;;
16119;SDS011;12670;53.502;10.252;2022-08-21T11:02:29;7.15;;;1.98;;
16119;SDS011;12670;53.502;10.252;2022-08-21T11:05:36;7.57;;;2.30;;
16119;SDS011;12670;53.502;10.252;2022-08-21T11:08:51;7.10;;;2.20;;
16119;SDS011;12670;53.502;10.252;2022-08-21T11:12:00;7.05;;;1.80;;
16119;SDS011;12670;53.502;10.252;2022-08-21T11:15:18;5.22;;;1.98;;
16119;SDS011;12670;53.502;10.252;2022-08-21T11:18:30;6.05;;;2.00;;
16119;SDS011;12670;53.502;10.252;2022-08-21T11:21:37;7.55;;;2.28;;
16119;SDS011;12670;53.502;10.252;2022-08-21T11:24:46;4.28;;;1.85;;
16119;SDS011;12670;53.502;10.252;2022-08-21T11:27:58;6.38;;;1.60;;
16119;SDS011;12670;53.502;10.252;2022-08-21T11:31:07;5.57;;;1.50;;
16119;SDS011;12670;53.502;10.252;2022-08-21T11:34:23;4.28;;;1.85;;
16119;SDS011;12670;53.502;10.252;2022-08-21T11:37:44;5.00;;;1.83;;
16119;SDS011;12670;53.502;10.252;2022-08-21T11:40:54;6.97;;;2.03;;
16119;SDS011;12670;53.502;10.252;2022-08-21T11:44:11;4.57;;;1.55;;
16119;SDS011;12670;53.502;10.252;2022-08-21T11:47:23;6.03;;;1.52;;
16119;SDS011;12670;53.502;10.252;2022-08-21T11:50:33;9.50;;;1.60;;
16119;SDS011;12670;53.502;10.252;2022-08-21T11:53:40;5.25;;;1.77;;
16119;SDS011;12670;53.502;10.252;2022-08-21T11:56:55;4.75;;;1.77;;
16119;SDS011;12670;53.502;10.252;2022-08-21T12:00:04;4.82;;;1.67;;
16119;SDS011;12670;53.502;10.252;2022-08-21T12:03:13;2.88;;;1.40;;
16119;SDS011;12670;53.502;10.252;2022-08-21T12:06:30;3.47;;;1.77;;
16119;SDS011;12670;53.502;10.252;2022-08-21T12:09:35;5.07;;;1.77;;
16119;SDS011;12670;53.502;10.252;2022-08-21T12:12:39;3.78;;;1.52;;
16119;SDS011;12670;53.502;10.252;2022-08-21T12:15:44;4.75;;;1.80;;
16119;SDS011;12670;53.502;10.252;2022-08-21T12:18:47;3.88;;;1.75;;
16119;SDS011;12670;53.502;10.252;2022-08-21T12:21:51;3.78;;;1.58;;
16119;SDS011;12670;53.502;10.252;2022-08-21T12:25:02;2.30;;;1.30;;
16119;SDS011;12670;53.502;10.252;2022-08-21T12:28:08;3.95;;;1.45;;
16119;SDS011;12670;53.502;10.252;2022-08-21T12:31:21;2.40;;;1.50;;
16119;SDS011;12670;53.502;10.252;2022-08-21T12:34:33;3.17;;;1.33;;
16119;SDS011;12670;53.502;10.252;2022-08-21T12:37:39;5.75;;;1.77;;
16119;SDS011;12670;53.502;10.252;2022-08-21T12:40:44;2.78;;;1.58;;
16119;SDS011;12670;53.502;10.252;2022-08-21T12:43:51;5.10;;;1.55;;
16119;SDS011;12670;53.502;10.252;2022-08-21T12:47:00;5.70;;;1.50;;
16119;SDS011;12670;53.502;10.252;2022-08-21T12:50:09;4.28;;;1.48;;
16119;SDS011;12670;53.502;10.252;2022-08-21T12:53:15;4.57;;;1.58;;
16119;SDS011;12670;53.502;10.252;2022-08-21T12:56:25;4.68;;;1.80;;
16119;SDS011;12670;53.502;10.252;2022-08-21T12:59:29;3.05;;;1.40;;
16119;SDS011;12670;53.502;10.252;2022-08-21T13:02:35;4.72;;;1.60;;
16119;SDS011;12670;53.502;10.252;2022-08-21T13:05:40;4.50;;;1.60;;
16119;SDS011;12670;53.502;10.252;2022-08-21T13:08:43;2.30;;;1.30;;
16119;SDS011;12670;53.502;10.252;2022-08-21T13:11:47;3.38;;;1.30;;
16119;SDS011;12670;53.502;10.252;2022-08-21T13:14:54;5.65;;;1.55;;
16119;SDS011;12670;53.502;10.252;2022-08-21T13:18:01;8.15;;;1.90;;
16119;SDS011;12670;53.502;10.252;2022-08-21T13:21:10;4.40;;;1.67;;
16119;SDS011;12670;53.502;10.252;2022-08-21T13:24:16;5.40;;;1.75;;
16119;SDS011;12670;53.502;10.252;2022-08-21T13:27:40;4.95;;;1.77;;
16119;SDS011;12670;53.502;10.252;2022-08-21T13:30:44;3.97;;;1.40;;
16119;SDS011;12670;53.502;10.252;2022-08-21T13:33:52;5.32;;;1.80;;
16119;SDS011;12670;53.502;10.252;2022-08-21T13:36:57;2.97;;;1.35;;
16119;SDS011;12670;53.502;10.252;2022-08-21T13:40:02;3.78;;;1.33;;
16119;SDS011;12670;53.502;10.252;2022-08-21T13:43:10;4.07;;;1.30;;
16119;SDS011;12670;53.502;10.252;2022-08-21T13:46:21;2.33;;;1.15;;
16119;SDS011;12670;53.502;10.252;2022-08-21T13:49:29;3.72;;;1.40;;
16119;SDS011;12670;53.502;10.252;2022-08-21T13:52:33;4.72;;;1.50;;
16119;SDS011;12670;53.502;10.252;2022-08-21T13:55:50;3.88;;;1.70;;
16119;SDS011;12670;53.502;10.252;2022-08-21T13:58:59;3.55;;;1.38;;
16119;SDS011;12670;53.502;10.252;2022-08-21T14:02:08;2.80;;;1.33;;
16119;SDS011;12670;53.502;10.252;2022-08-21T14:05:19;3.88;;;1.42;;
16119;SDS011;12670;53.502;10.252;2022-08-21T14:08:25;3.95;;;1.25;;
16119;SDS011;12670;53.502;10.252;2022-08-21T14:11:33;4.15;;;1.58;;
16119;SDS011;12670;53.502;10.252;2022-08-21T14:14:37;4.03;;;1.38;;
16119;SDS011;12670;53.502;10.252;2022-08-21T14:17:42;6.57;;;1.50;;
16119;SDS011;12670;53.502;10.252;2022-08-21T14:20:46;2.88;;;1.33;;
16119;SDS011;12670;53.502;10.252;2022-08-21T14:23:58;3.35;;;1.30;;
16119;SDS011;12670;53.502;10.252;2022-08-21T14:27:02;3.20;;;1.45;;
16119;SDS011;12670;53.502;10.252;2022-08-21T14:30:09;4.30;;;1.10;;
16119;SDS011;12670;53.502;10.252;2022-08-21T14:33:18;3.40;;;1.60;;
16119;SDS011;12670;53.502;10.252;2022-08-21T14:36:28;2.78;;;1.13;;
16119;SDS011;12670;53.502;10.252;2022-08-21T14:39:30;3.65;;;1.33;;
16119;SDS011;12670;53.502;10.252;2022-08-21T14:42:33;3.78;;;1.48;;
16119;SDS011;12670;53.502;10.252;2022-08-21T14:45:39;3.22;;;1.40;;
16119;SDS011;12670;53.502;10.252;2022-08-21T14:48:42;3.38;;;1.60;;
16119;SDS011;12670;53.502;10.252;2022-08-21T14:51:46;3.53;;;1.55;;
16119;SDS011;12670;53.502;10.252;2022-08-21T14:54:54;3.03;;;1.33;;
16119;SDS011;12670;53.502;10.252;2022-08-21T14:57:57;3.58;;;1.40;;
16119;SDS011;12670;53.502;10.252;2022-08-21T15:01:00;3.30;;;1.30;;
16119;SDS011;12670;53.502;10.252;2022-08-21T15:04:04;5.55;;;1.30;;
16119;SDS011;12670;53.502;10.252;2022-08-21T15:07:08;3.47;;;1.50;;
16119;SDS011;12670;53.502;10.252;2022-08-21T15:10:11;1.67;;;1.13;;
16119;SDS011;12670;53.502;10.252;2022-08-21T15:13:14;5.25;;;1.50;;
16119;SDS011;12670;53.502;10.252;2022-08-21T15:16:17;4.15;;;1.50;;
16119;SDS011;12670;53.502;10.252;2022-08-21T15:19:19;2.35;;;1.20;;
16119;SDS011;12670;53.502;10.252;2022-08-21T15:22:23;4.18;;;1.40;;
16119;SDS011;12670;53.502;10.252;2022-08-21T15:25:28;7.05;;;2.15;;
16119;SDS011;12670;53.502;10.252;2022-08-21T15:28:31;4.90;;;1.70;;
16119;SDS011;12670;53.502;10.252;2022-08-21T15:31:35;3.03;;;1.50;;
16119;SDS011;12670;53.502;10.252;2022-08-21T15:34:38;3.40;;;1.30;;
16119;SDS011;12670;53.502;10.252;2022-08-21T15:37:42;3.90;;;1.83;;
16119;SDS011;12670;53.502;10.252;2022-08-21T15:40:45;3.90;;;1.48;;
16119;SDS011;12670;53.502;10.252;2022-08-21T15:43:52;3.72;;;1.80;;
16119;SDS011;12670;53.502;10.252;2022-08-21T15:46:55;3.85;;;1.48;;
16119;SDS011;12670;53.502;10.252;2022-08-21T15:49:59;3.67;;;1.38;;
16119;SDS011;12670;53.502;10.252;2022-08-21T15:53:03;3.95;;;1.38;;
16119;SDS011;12670;53.502;10.252;2022-08-21T15:56:09;5.90;;;1.40;;
16119;SDS011;12670;53.502;10.252;2022-08-21T15:59:22;5.47;;;1.48;;
16119;SDS011;12670;53.502;10.252;2022-08-21T16:02:25;6.75;;;1.40;;
16119;SDS011;12670;53.502;10.252;2022-08-21T16:05:29;3.67;;;1.80;;
16119;SDS011;12670;53.502;10.252;2022-08-21T16:08:34;3.65;;;1.40;;
16119;SDS011;12670;53.502;10.252;2022-08-21T16:11:36;3.53;;;1.40;;
16119;SDS011;12670;53.502;10.252;2022-08-21T16:14:41;4.28;;;1.20;;
16119;SDS011;12670;53.502;10.252;2022-08-21T16:17:44;4.38;;;1.42;;
16119;SDS011;12670;53.502;10.252;2022-08-21T16:20:49;3.58;;;1.27;;
16119;SDS011;12670;53.502;10.252;2022-08-21T16:23:53;3.05;;;1.45;;
16119;SDS011;12670;53.502;10.252;2022-08-21T16:26:56;2.90;;;1.10;;
16119;SDS011;12670;53.502;10.252;2022-08-21T16:29:59;4.75;;;1.55;;
16119;SDS011;12670;53.502;10.252;2022-08-21T16:33:03;4.75;;;1.27;;
16119;SDS011;12670;53.502;10.252;2022-08-21T16:36:09;4.43;;;1.23;;
16119;SDS011;12670;53.502;10.252;2022-08-21T16:39:14;6.03;;;1.48;;
16119;SDS011;12670;53.502;10.252;2022-08-21T16:42:17;3.28;;;1.02;;
16119;SDS011;12670;53.502;10.252;2022-08-21T16:45:23;3.17;;;1.48;;
16119;SDS011;12670;53.502;10.252;2022-08-21T16:48:32;4.18;;;1.27;;
16119;SDS011;12670;53.502;10.252;2022-08-21T16:51:37;4.38;;;1.40;;
16119;SDS011;12670;53.502;10.252;2022-08-21T16:54:41;3.05;;;1.33;;
16119;SDS011;12670;53.502;10.252;2022-08-21T16:57:44;4.25;;;1.30;;
16119;SDS011;12670;53.502;10.252;2022-08-21T17:00:47;2.58;;;1.27;;
16119;SDS011;12670;53.502;10.252;2022-08-21T17:03:50;3.28;;;1.40;;
16119;SDS011;12670;53.502;10.252;2022-08-21T17:06:56;3.72;;;1.35;;
16119;SDS011;12670;53.502;10.252;2022-08-21T17:10:00;5.32;;;1.95;;
16119;SDS011;12670;53.502;10.252;2022-08-21T17:13:03;5.47;;;1.55;;
16119;SDS011;12670;53.502;10.252;2022-08-21T17:16:10;3.78;;;1.52;;
16119;SDS011;12670;53.502;10.252;2022-08-21T17:19:12;2.90;;;1.48;;
16119;SDS011;12670;53.502;10.252;2022-08-21T17:22:15;4.60;;;1.58;;
16119;SDS011;12670;53.502;10.252;2022-08-21T17:25:19;3.20;;;1.58;;
16119;SDS011;12670;53.502;10.252;2022-08-21T17:28:23;4.68;;;1.42;;
16119;SDS011;12670;53.502;10.252;2022-08-21T17:31:28;6.68;;;1.45;;
16119;SDS011;12670;53.502;10.252;2022-08-21T17:34:32;5.13;;;1.60;;
16119;SDS011;12670;53.502;10.252;2022-08-21T17:37:34;6.13;;;1.80;;
16119;SDS011;12670;53.502;10.252;2022-08-21T17:40:39;6.95;;;1.58;;
16119;SDS011;12670;53.502;10.252;2022-08-21T17:43:42;7.80;;;1.67;;
16119;SDS011;12670;53.502;10.252;2022-08-21T17:46:45;3.33;;;1.48;;
16119;SDS011;12670;53.502;10.252;2022-08-21T17:49:48;3.78;;;1.50;;
16119;SDS011;12670;53.502;10.252;2022-08-21T17:52:51;7.10;;;1.60;;
16119;SDS011;12670;53.502;10.252;2022-08-21T17:55:55;4.80;;;1.40;;
16119;SDS011;12670;53.502;10.252;2022-08-21T17:58:57;6.85;;;1.75;;
16119;SDS011;12670;53.502;10.252;2022-08-21T18:02:01;5.35;;;1.48;;
16119;SDS011;12670;53.502;10.252;2022-08-21T18:05:10;3.28;;;1.40;;
16119;SDS011;12670;53.502;10.252;2022-08-21T18:08:14;4.75;;;2.05;;
16119;SDS011;12670;53.502;10.252;2022-08-21T18:14:42;5.07;;;1.80;;
16119;SDS011;12670;53.502;10.252;2022-08-21T18:17:45;4.35;;;1.63;;
16119;SDS011;12670;53.502;10.252;2022-08-21T18:20:50;10.65;;;2.03;;
16119;SDS011;12670;53.502;10.252;2022-08-21T18:23:55;7.15;;;1.70;;